Flight Track Log - Related Links

Times and Time Zones

All times are in EDT time to prevent confusion due to time zone crossing. See the CTL16 flight status page for this flight to view local times or setup timezone preferences in your user account.

Time Position Orientation Groundspeed Altitude Reporting Facility
EDT Latitude Longitude Course Direction KTS MPH feet Rate Location/Type
Fri 08:41:54 PM 39.4456 -84.3947 50° Northeast 173 199 2,100  Level Indianapolis Center
Fri 08:42:37 PM 39.4658 -84.3631 50° Northeast 172 198 2,300 228 Climbing Indianapolis Center
Fri 08:43:13 PM 39.4814 -84.3400 49° Northeast 168 193 2,400 179 Climbing Indianapolis Center
Fri 08:43:44 PM 39.5006 -84.3150 45° Northeast 173 199 2,500 393 Climbing Indianapolis Center
Fri 08:44:14 PM 39.5156 -84.2944 47° Northeast 171 197 2,800 725 Climbing Indianapolis Center
Fri 08:45:15 PM 39.5486 -84.2531 44° Northeast 168 193 3,600 989 Climbing Indianapolis Center
Fri 08:45:45 PM 39.5639 -84.2339 44° Northeast 131 151 4,300 984 Climbing Indianapolis Center
Fri 08:46:16 PM 39.5739 -84.2208 45° Northeast 142 163 4,600 806 Climbing Indianapolis Center
Fri 08:46:52 PM 39.5931 -84.1983 42° Northeast 128 147 5,200 941 Climbing Indianapolis Center
Fri 08:47:58 PM 39.6206 -84.1569 49° Northeast 135 155 6,200 843 Climbing Indianapolis Center
Fri 08:48:53 PM 39.6444 -84.1311 40° Northeast 135 155 6,900 783 Climbing Indianapolis Center
Fri 08:49:53 PM 39.6714 -84.0953 46° Northeast 126 145 7,700 756 Climbing Indianapolis Center
Fri 08:51:00 PM 39.6983 -84.0592 46° Northeast 129 148 8,500 689 Climbing Indianapolis Center
Fri 08:51:55 PM 39.7222 -84.0306 43° Northeast 132 152 9,100 261 Climbing Indianapolis Center
Fri 08:52:55 PM 39.7539 -83.9897 45° Northeast 181 208 9,000  Descending Indianapolis Center
Fri 08:53:50 PM 39.7878 -83.9467 44° Northeast 185 213 9,100  Climbing Indianapolis Center
Fri 08:54:24 PM 39.8025 -83.9286 43° Northeast 182 209 9,000  Descending Indianapolis Center
Fri 08:55:25 PM 39.8467 -83.8717 45° Northeast 188 216 9,100 49 Climbing Indianapolis Center
Fri 08:56:26 PM 39.8850 -83.8228 44° Northeast 190 219 9,100 -49 Level Indianapolis Center
Fri 08:57:27 PM 39.9233 -83.7739 44° Northeast 190 219 9,000 -49 Descending Indianapolis Center
Fri 08:58:28 PM 39.9619 -83.7228 45° Northeast 194 223 9,000  Level Indianapolis Center
Fri 08:59:29 PM 40.0000 -83.6733 45° Northeast 191 220 9,000  Level Indianapolis Center
Fri 09:00:30 PM 40.0386 -83.6239 44° Northeast 191 220 9,000  Level Indianapolis Center
Fri 09:01:32 PM 40.0753 -83.5731 47° Northeast 188 216 9,000  Level Indianapolis Center
Fri 09:02:33 PM 40.1119 -83.5225 47° Northeast 189 217 9,000  Level Indianapolis Center
Fri 09:03:34 PM 40.1489 -83.4728 46° Northeast 187 215 9,000  Level Indianapolis Center
Fri 09:04:35 PM 40.1869 -83.4228 45° Northeast 190 219 9,000  Level Indianapolis Center
Fri 09:05:36 PM 40.2247 -83.3722 46° Northeast 191 220 9,000  Level Indianapolis Center
Fri 09:06:37 PM 40.2636 -83.3236 44° Northeast 191 220 9,000  Level Indianapolis Center
Fri 09:07:38 PM 40.3017 -83.2739 45° Northeast 191 220 9,000  Level Indianapolis Center
Fri 09:08:39 PM 40.3408 -83.2242 44° Northeast 193 222 9,000 49 Level Indianapolis Center
Fri 09:09:40 PM 40.3794 -83.1742 45° Northeast 192 221 9,100  Climbing Indianapolis Center
Fri 09:10:41 PM 40.4189 -83.1247 44° Northeast 193 222 9,000 -49 Descending Indianapolis Center
Fri 09:11:42 PM 40.4558 -83.0744 46° Northeast 190 219 9,000 -49 Level Indianapolis Center
Fri 09:12:43 PM 40.4939 -83.0253 44° Northeast 188 216 8,900  Descending Indianapolis Center
Fri 09:13:44 PM 40.5322 -82.9756 45° Northeast 189 217 9,000 49 Climbing Indianapolis Center
Fri 09:14:45 PM 40.5711 -82.9264 44° Northeast 189 217 9,000 -49 Level Indianapolis Center
Fri 09:15:46 PM 40.6097 -82.8786 43° Northeast 188 216 8,900  Descending Indianapolis Center
Fri 09:16:47 PM 40.6469 -82.8289 45° Northeast 190 219 9,000 49 Climbing Indianapolis Center
Fri 09:17:48 PM 40.6847 -82.7783 45° Northeast 191 220 9,000  Level Indianapolis Center
Fri 09:18:49 PM 40.7239 -82.7294 43° Northeast 192 221 9,000  Level Indianapolis Center
Fri 09:19:50 PM 40.7617 -82.6781 46° Northeast 192 221 9,000  Level Indianapolis Center
Fri 09:20:51 PM 40.7989 -82.6250 47° Northeast 195 224 9,000  Level Indianapolis Center
Fri 09:21:52 PM 40.8369 -82.5747 45° Northeast 191 220 9,000  Level Indianapolis Center
Fri 09:22:53 PM 40.8753 -82.5247 45° Northeast 191 220 9,000  Level Indianapolis Center
Fri 09:23:55 PM 40.9144 -82.4736 45° Northeast 187 215 9,000  Level Cleveland Center

Login

Don't have an account? Register now (free) for customized features, flight alerts, and more!